sensor_id;sensor_type;location;lat;lon;timestamp;temperature;humidity
23051;DHT22;11693;51.358;12.410;2022-08-02T00:00:08;24.20;99.90
23051;DHT22;11693;51.358;12.410;2022-08-02T00:02:34;24.20;99.90
23051;DHT22;11693;51.358;12.410;2022-08-02T00:05:00;24.20;99.90
23051;DHT22;11693;51.358;12.410;2022-08-02T00:07:25;24.20;99.90
23051;DHT22;11693;51.358;12.410;2022-08-02T00:09:51;24.00;99.90
23051;DHT22;11693;51.358;12.410;2022-08-02T00:12:16;23.90;99.90
23051;DHT22;11693;51.358;12.410;2022-08-02T00:14:42;23.90;99.90
23051;DHT22;11693;51.358;12.410;2022-08-02T00:17:07;23.80;99.90
23051;DHT22;11693;51.358;12.410;2022-08-02T00:19:33;23.80;99.90
23051;DHT22;11693;51.358;12.410;2022-08-02T00:21:59;23.80;99.90
23051;DHT22;11693;51.358;12.410;2022-08-02T00:24:24;23.70;99.90
23051;DHT22;11693;51.358;12.410;2022-08-02T00:26:50;23.60;99.90
23051;DHT22;11693;51.358;12.410;2022-08-02T00:29:16;23.60;99.90
23051;DHT22;11693;51.358;12.410;2022-08-02T00:31:41;23.60;99.90
23051;DHT22;11693;51.358;12.410;2022-08-02T00:34:07;23.70;99.90
23051;DHT22;11693;51.358;12.410;2022-08-02T00:36:32;23.70;99.90
23051;DHT22;11693;51.358;12.410;2022-08-02T00:38:58;23.70;99.90
23051;DHT22;11693;51.358;12.410;2022-08-02T00:41:24;23.70;99.90
23051;DHT22;11693;51.358;12.410;2022-08-02T00:43:50;23.70;99.90
23051;DHT22;11693;51.358;12.410;2022-08-02T00:46:18;23.70;99.90
23051;DHT22;11693;51.358;12.410;2022-08-02T00:48:44;23.80;99.90
23051;DHT22;11693;51.358;12.410;2022-08-02T00:51:11;23.70;99.90
23051;DHT22;11693;51.358;12.410;2022-08-02T00:53:37;23.80;99.90
23051;DHT22;11693;51.358;12.410;2022-08-02T00:56:03;23.70;99.90
23051;DHT22;11693;51.358;12.410;2022-08-02T00:58:29;23.70;99.90
23051;DHT22;11693;51.358;12.410;2022-08-02T01:00:55;23.70;99.90
23051;DHT22;11693;51.358;12.410;2022-08-02T01:03:22;23.70;99.90
23051;DHT22;11693;51.358;12.410;2022-08-02T01:05:49;23.70;99.90
23051;DHT22;11693;51.358;12.410;2022-08-02T01:08:15;23.60;99.90
23051;DHT22;11693;51.358;12.410;2022-08-02T01:10:40;23.50;99.90
23051;DHT22;11693;51.358;12.410;2022-08-02T01:13:06;23.60;99.90
23051;DHT22;11693;51.358;12.410;2022-08-02T01:15:34;23.50;99.90
23051;DHT22;11693;51.358;12.410;2022-08-02T01:18:07;23.50;99.90
23051;DHT22;11693;51.358;12.410;2022-08-02T01:26:22;23.40;99.90
23051;DHT22;11693;51.358;12.410;2022-08-02T01:37:02;23.30;99.90
23051;DHT22;11693;51.358;12.410;2022-08-02T01:39:32;23.30;99.90
23051;DHT22;11693;51.358;12.410;2022-08-02T01:41:59;23.30;99.90
23051;DHT22;11693;51.358;12.410;2022-08-02T01:44:29;23.30;99.90
23051;DHT22;11693;51.358;12.410;2022-08-02T01:47:00;23.20;99.90
23051;DHT22;11693;51.358;12.410;2022-08-02T01:49:29;23.10;99.90
23051;DHT22;11693;51.358;12.410;2022-08-02T01:51:57;23.10;99.90
23051;DHT22;11693;51.358;12.410;2022-08-02T01:54:44;23.00;99.90
23051;DHT22;11693;51.358;12.410;2022-08-02T01:57:12;23.10;99.90
23051;DHT22;11693;51.358;12.410;2022-08-02T01:59:41;23.10;99.90
23051;DHT22;11693;51.358;12.410;2022-08-02T02:02:08;23.10;99.90
23051;DHT22;11693;51.358;12.410;2022-08-02T02:04:36;23.00;99.90
23051;DHT22;11693;51.358;12.410;2022-08-02T02:07:02;22.90;99.90
23051;DHT22;11693;51.358;12.410;2022-08-02T02:09:30;23.00;99.90
23051;DHT22;11693;51.358;12.410;2022-08-02T02:12:00;22.90;99.90
23051;DHT22;11693;51.358;12.410;2022-08-02T02:14:27;22.90;99.90
23051;DHT22;11693;51.358;12.410;2022-08-02T02:16:55;22.90;99.90
23051;DHT22;11693;51.358;12.410;2022-08-02T02:19:23;22.90;99.90
23051;DHT22;11693;51.358;12.410;2022-08-02T02:21:50;22.90;99.90
23051;DHT22;11693;51.358;12.410;2022-08-02T02:24:15;22.80;99.90
23051;DHT22;11693;51.358;12.410;2022-08-02T02:26:42;22.60;99.90
23051;DHT22;11693;51.358;12.410;2022-08-02T02:29:10;22.70;99.90
23051;DHT22;11693;51.358;12.410;2022-08-02T02:31:38;22.70;99.90
23051;DHT22;11693;51.358;12.410;2022-08-02T02:34:10;22.70;99.90
23051;DHT22;11693;51.358;12.410;2022-08-02T02:36:40;22.60;99.90
23051;DHT22;11693;51.358;12.410;2022-08-02T02:39:07;22.60;99.90
23051;DHT22;11693;51.358;12.410;2022-08-02T02:41:34;22.70;99.90
23051;DHT22;11693;51.358;12.410;2022-08-02T02:44:02;22.70;99.90
23051;DHT22;11693;51.358;12.410;2022-08-02T02:46:31;22.60;99.90
23051;DHT22;11693;51.358;12.410;2022-08-02T02:48:59;22.50;99.90
23051;DHT22;11693;51.358;12.410;2022-08-02T02:51:24;22.50;99.90
23051;DHT22;11693;51.358;12.410;2022-08-02T02:53:51;22.40;99.90
23051;DHT22;11693;51.358;12.410;2022-08-02T02:56:18;22.40;99.90
23051;DHT22;11693;51.358;12.410;2022-08-02T02:58:44;22.40;99.90
23051;DHT22;11693;51.358;12.410;2022-08-02T03:01:11;22.40;99.90
23051;DHT22;11693;51.358;12.410;2022-08-02T03:03:53;22.50;99.90
23051;DHT22;11693;51.358;12.410;2022-08-02T03:06:19;22.50;99.90
23051;DHT22;11693;51.358;12.410;2022-08-02T03:08:45;22.50;99.90
23051;DHT22;11693;51.358;12.410;2022-08-02T03:11:11;22.40;99.90
23051;DHT22;11693;51.358;12.410;2022-08-02T03:13:38;22.40;99.90
23051;DHT22;11693;51.358;12.410;2022-08-02T03:16:05;22.40;99.90
23051;DHT22;11693;51.358;12.410;2022-08-02T03:18:39;22.40;99.90
23051;DHT22;11693;51.358;12.410;2022-08-02T03:21:10;22.30;99.90
23051;DHT22;11693;51.358;12.410;2022-08-02T03:23:36;22.40;99.90
23051;DHT22;11693;51.358;12.410;2022-08-02T03:26:03;22.40;99.90
23051;DHT22;11693;51.358;12.410;2022-08-02T03:28:28;22.40;99.90
23051;DHT22;11693;51.358;12.410;2022-08-02T03:30:54;22.40;99.90
23051;DHT22;11693;51.358;12.410;2022-08-02T03:33:21;22.60;99.90
23051;DHT22;11693;51.358;12.410;2022-08-02T03:35:47;22.50;99.90
23051;DHT22;11693;51.358;12.410;2022-08-02T03:38:15;22.40;99.90
23051;DHT22;11693;51.358;12.410;2022-08-02T03:40:43;22.40;99.90
23051;DHT22;11693;51.358;12.410;2022-08-02T03:43:10;22.40;99.90
23051;DHT22;11693;51.358;12.410;2022-08-02T03:45:38;22.40;99.90
23051;DHT22;11693;51.358;12.410;2022-08-02T03:48:06;22.30;99.90
23051;DHT22;11693;51.358;12.410;2022-08-02T03:50:33;22.30;99.90
23051;DHT22;11693;51.358;12.410;2022-08-02T03:53:00;22.20;99.90
23051;DHT22;11693;51.358;12.410;2022-08-02T03:55:26;22.30;99.90
23051;DHT22;11693;51.358;12.410;2022-08-02T03:57:52;22.40;99.90
23051;DHT22;11693;51.358;12.410;2022-08-02T04:00:19;22.40;99.90
23051;DHT22;11693;51.358;12.410;2022-08-02T04:02:46;22.40;99.90
23051;DHT22;11693;51.358;12.410;2022-08-02T04:05:11;22.40;99.90
23051;DHT22;11693;51.358;12.410;2022-08-02T04:07:37;22.40;99.90
23051;DHT22;11693;51.358;12.410;2022-08-02T04:10:04;22.40;99.90
23051;DHT22;11693;51.358;12.410;2022-08-02T04:12:30;22.50;99.90
23051;DHT22;11693;51.358;12.410;2022-08-02T04:14:56;22.40;99.90
23051;DHT22;11693;51.358;12.410;2022-08-02T04:17:22;22.40;99.90
23051;DHT22;11693;51.358;12.410;2022-08-02T04:19:52;22.30;99.90
23051;DHT22;11693;51.358;12.410;2022-08-02T04:22:24;22.30;99.90
23051;DHT22;11693;51.358;12.410;2022-08-02T04:24:53;22.20;99.90
23051;DHT22;11693;51.358;12.410;2022-08-02T04:27:21;22.20;99.90
23051;DHT22;11693;51.358;12.410;2022-08-02T04:29:48;22.30;99.90
23051;DHT22;11693;51.358;12.410;2022-08-02T04:32:15;22.50;99.90
23051;DHT22;11693;51.358;12.410;2022-08-02T04:34:42;22.80;99.90
23051;DHT22;11693;51.358;12.410;2022-08-02T04:37:08;22.90;99.90
23051;DHT22;11693;51.358;12.410;2022-08-02T04:39:35;23.00;99.70
23051;DHT22;11693;51.358;12.410;2022-08-02T04:42:01;23.00;99.70
23051;DHT22;11693;51.358;12.410;2022-08-02T04:44:27;23.10;99.30
23051;DHT22;11693;51.358;12.410;2022-08-02T04:46:52;23.10;99.30
23051;DHT22;11693;51.358;12.410;2022-08-02T04:49:19;23.10;99.50
23051;DHT22;11693;51.358;12.410;2022-08-02T04:51:45;23.10;99.50
23051;DHT22;11693;51.358;12.410;2022-08-02T04:54:11;23.00;99.30
23051;DHT22;11693;51.358;12.410;2022-08-02T04:56:37;23.10;99.50
23051;DHT22;11693;51.358;12.410;2022-08-02T04:59:03;23.10;99.20
23051;DHT22;11693;51.358;12.410;2022-08-02T05:01:29;23.10;98.90
23051;DHT22;11693;51.358;12.410;2022-08-02T05:03:55;23.10;98.50
23051;DHT22;11693;51.358;12.410;2022-08-02T05:06:20;23.00;98.40
23051;DHT22;11693;51.358;12.410;2022-08-02T05:08:46;23.10;98.10
23051;DHT22;11693;51.358;12.410;2022-08-02T05:11:12;23.10;98.60
23051;DHT22;11693;51.358;12.410;2022-08-02T05:13:40;23.00;97.70
23051;DHT22;11693;51.358;12.410;2022-08-02T05:16:05;23.10;97.60
23051;DHT22;11693;51.358;12.410;2022-08-02T05:18:31;23.00;97.60
23051;DHT22;11693;51.358;12.410;2022-08-02T05:20:57;22.90;97.40
23051;DHT22;11693;51.358;12.410;2022-08-02T05:23:22;23.00;97.70
23051;DHT22;11693;51.358;12.410;2022-08-02T05:25:48;23.10;97.20
23051;DHT22;11693;51.358;12.410;2022-08-02T05:28:13;23.30;97.00
23051;DHT22;11693;51.358;12.410;2022-08-02T05:30:39;23.30;97.20
23051;DHT22;11693;51.358;12.410;2022-08-02T05:33:05;23.50;97.10
23051;DHT22;11693;51.358;12.410;2022-08-02T05:35:31;23.60;97.10
23051;DHT22;11693;51.358;12.410;2022-08-02T05:37:56;23.70;96.20
23051;DHT22;11693;51.358;12.410;2022-08-02T05:40:22;23.80;96.50
23051;DHT22;11693;51.358;12.410;2022-08-02T05:42:47;23.80;96.30
23051;DHT22;11693;51.358;12.410;2022-08-02T05:45:13;24.10;96.40
23051;DHT22;11693;51.358;12.410;2022-08-02T05:47:39;24.20;96.10
23051;DHT22;11693;51.358;12.410;2022-08-02T05:50:06;24.60;95.40
23051;DHT22;11693;51.358;12.410;2022-08-02T05:52:45;24.70;94.30
23051;DHT22;11693;51.358;12.410;2022-08-02T05:55:26;24.90;94.80
23051;DHT22;11693;51.358;12.410;2022-08-02T05:58:05;25.00;94.50
23051;DHT22;11693;51.358;12.410;2022-08-02T06:00:36;25.30;93.70
23051;DHT22;11693;51.358;12.410;2022-08-02T06:03:38;25.60;94.20
23051;DHT22;11693;51.358;12.410;2022-08-02T06:06:12;26.00;93.30
23051;DHT22;11693;51.358;12.410;2022-08-02T06:08:42;26.30;93.10
23051;DHT22;11693;51.358;12.410;2022-08-02T06:11:14;26.60;92.80
23051;DHT22;11693;51.358;12.410;2022-08-02T06:13:41;26.90;91.40
23051;DHT22;11693;51.358;12.410;2022-08-02T06:16:08;27.10;90.60
23051;DHT22;11693;51.358;12.410;2022-08-02T06:18:34;26.90;90.70
23051;DHT22;11693;51.358;12.410;2022-08-02T06:21:02;26.80;90.40
23051;DHT22;11693;51.358;12.410;2022-08-02T06:23:28;26.70;90.50
23051;DHT22;11693;51.358;12.410;2022-08-02T06:25:56;26.60;90.70
23051;DHT22;11693;51.358;12.410;2022-08-02T06:28:22;26.70;91.50
23051;DHT22;11693;51.358;12.410;2022-08-02T06:30:49;26.80;90.50
23051;DHT22;11693;51.358;12.410;2022-08-02T06:33:15;26.60;90.20
23051;DHT22;11693;51.358;12.410;2022-08-02T06:38:21;26.70;88.60
23051;DHT22;11693;51.358;12.410;2022-08-02T06:40:59;27.10;87.00
23051;DHT22;11693;51.358;12.410;2022-08-02T06:45:56;27.30;87.00
23051;DHT22;11693;51.358;12.410;2022-08-02T06:48:21;27.70;84.80
23051;DHT22;11693;51.358;12.410;2022-08-02T06:50:47;27.90;84.20
23051;DHT22;11693;51.358;12.410;2022-08-02T06:53:13;28.10;83.50
23051;DHT22;11693;51.358;12.410;2022-08-02T06:55:38;28.30;83.20
23051;DHT22;11693;51.358;12.410;2022-08-02T06:58:04;28.40;82.80
23051;DHT22;11693;51.358;12.410;2022-08-02T07:00:30;28.40;80.90
23051;DHT22;11693;51.358;12.410;2022-08-02T07:02:56;28.30;81.10
23051;DHT22;11693;51.358;12.410;2022-08-02T07:05:22;28.30;82.30
23051;DHT22;11693;51.358;12.410;2022-08-02T07:07:48;28.30;80.90
23051;DHT22;11693;51.358;12.410;2022-08-02T07:10:14;28.30;82.00
23051;DHT22;11693;51.358;12.410;2022-08-02T07:12:40;28.50;82.60
23051;DHT22;11693;51.358;12.410;2022-08-02T07:15:07;28.70;80.00
23051;DHT22;11693;51.358;12.410;2022-08-02T07:17:33;28.50;79.10
23051;DHT22;11693;51.358;12.410;2022-08-02T07:19:59;28.60;80.00
23051;DHT22;11693;51.358;12.410;2022-08-02T07:22:25;28.60;79.30
23051;DHT22;11693;51.358;12.410;2022-08-02T07:24:56;28.60;79.80
23051;DHT22;11693;51.358;12.410;2022-08-02T07:27:23;28.70;80.10
23051;DHT22;11693;51.358;12.410;2022-08-02T07:29:49;28.80;79.20
23051;DHT22;11693;51.358;12.410;2022-08-02T07:32:19;28.90;79.90
23051;DHT22;11693;51.358;12.410;2022-08-02T07:34:45;28.90;78.10
23051;DHT22;11693;51.358;12.410;2022-08-02T07:37:12;28.80;78.60
23051;DHT22;11693;51.358;12.410;2022-08-02T07:39:37;28.90;80.60
23051;DHT22;11693;51.358;12.410;2022-08-02T07:42:03;29.10;80.40
23051;DHT22;11693;51.358;12.410;2022-08-02T07:44:29;29.50;79.00
23051;DHT22;11693;51.358;12.410;2022-08-02T07:47:00;29.40;78.30
23051;DHT22;11693;51.358;12.410;2022-08-02T07:49:26;29.50;79.10
23051;DHT22;11693;51.358;12.410;2022-08-02T07:51:52;29.80;76.70
23051;DHT22;11693;51.358;12.410;2022-08-02T07:54:17;30.00;75.70
23051;DHT22;11693;51.358;12.410;2022-08-02T07:56:43;30.10;76.60
23051;DHT22;11693;51.358;12.410;2022-08-02T07:59:09;30.30;75.00
23051;DHT22;11693;51.358;12.410;2022-08-02T08:01:35;30.40;75.30
23051;DHT22;11693;51.358;12.410;2022-08-02T08:04:02;30.50;76.50
23051;DHT22;11693;51.358;12.410;2022-08-02T08:06:27;30.80;74.20
23051;DHT22;11693;51.358;12.410;2022-08-02T08:08:53;30.50;73.60
23051;DHT22;11693;51.358;12.410;2022-08-02T08:11:19;30.30;76.00
23051;DHT22;11693;51.358;12.410;2022-08-02T08:13:45;30.80;76.90
23051;DHT22;11693;51.358;12.410;2022-08-02T08:16:11;31.20;74.80
23051;DHT22;11693;51.358;12.410;2022-08-02T08:18:37;31.40;72.80
23051;DHT22;11693;51.358;12.410;2022-08-02T08:21:02;31.50;73.10
23051;DHT22;11693;51.358;12.410;2022-08-02T08:23:28;31.50;71.90
23051;DHT22;11693;51.358;12.410;2022-08-02T08:25:54;31.80;71.60
23051;DHT22;11693;51.358;12.410;2022-08-02T08:28:19;31.90;69.70
23051;DHT22;11693;51.358;12.410;2022-08-02T08:30:45;31.80;71.10
23051;DHT22;11693;51.358;12.410;2022-08-02T08:33:12;31.80;72.30
23051;DHT22;11693;51.358;12.410;2022-08-02T08:35:41;31.80;69.80
23051;DHT22;11693;51.358;12.410;2022-08-02T08:38:07;31.40;69.20
23051;DHT22;11693;51.358;12.410;2022-08-02T08:40:33;31.00;70.10
23051;DHT22;11693;51.358;12.410;2022-08-02T08:42:59;30.90;71.10
23051;DHT22;11693;51.358;12.410;2022-08-02T08:45:25;31.20;70.10
23051;DHT22;11693;51.358;12.410;2022-08-02T08:48:11;31.50;70.00
23051;DHT22;11693;51.358;12.410;2022-08-02T08:50:46;31.40;69.20
23051;DHT22;11693;51.358;12.410;2022-08-02T08:53:14;31.50;69.50
23051;DHT22;11693;51.358;12.410;2022-08-02T08:55:40;31.60;69.50
23051;DHT22;11693;51.358;12.410;2022-08-02T08:58:06;31.80;69.60
23051;DHT22;11693;51.358;12.410;2022-08-02T09:00:33;31.90;71.10
23051;DHT22;11693;51.358;12.410;2022-08-02T09:03:04;32.20;69.10
23051;DHT22;11693;51.358;12.410;2022-08-02T09:05:30;32.30;68.20
23051;DHT22;11693;51.358;12.410;2022-08-02T09:07:58;32.40;67.90
23051;DHT22;11693;51.358;12.410;2022-08-02T09:10:37;32.50;68.40
23051;DHT22;11693;51.358;12.410;2022-08-02T09:13:15;32.70;67.20
23051;DHT22;11693;51.358;12.410;2022-08-02T09:15:43;32.60;68.30
23051;DHT22;11693;51.358;12.410;2022-08-02T09:18:10;32.70;67.90
23051;DHT22;11693;51.358;12.410;2022-08-02T09:20:52;32.70;67.30
23051;DHT22;11693;51.358;12.410;2022-08-02T09:23:18;32.80;68.40
23051;DHT22;11693;51.358;12.410;2022-08-02T09:26:05;32.90;67.20
23051;DHT22;11693;51.358;12.410;2022-08-02T09:28:37;32.90;66.40
23051;DHT22;11693;51.358;12.410;2022-08-02T09:31:05;33.20;66.80
23051;DHT22;11693;51.358;12.410;2022-08-02T09:33:32;33.10;65.80
23051;DHT22;11693;51.358;12.410;2022-08-02T09:36:11;33.20;65.80
23051;DHT22;11693;51.358;12.410;2022-08-02T09:38:38;33.30;65.20
23051;DHT22;11693;51.358;12.410;2022-08-02T09:41:06;33.20;65.10
23051;DHT22;11693;51.358;12.410;2022-08-02T09:43:43;33.20;64.90
23051;DHT22;11693;51.358;12.410;2022-08-02T09:46:21;33.00;66.20
23051;DHT22;11693;51.358;12.410;2022-08-02T09:48:53;33.20;66.60
23051;DHT22;11693;51.358;12.410;2022-08-02T09:53:58;33.70;65.40
23051;DHT22;11693;51.358;12.410;2022-08-02T09:56:25;33.50;64.70
23051;DHT22;11693;51.358;12.410;2022-08-02T09:58:53;33.50;64.30
23051;DHT22;11693;51.358;12.410;2022-08-02T10:01:20;33.70;65.20
23051;DHT22;11693;51.358;12.410;2022-08-02T10:03:59;33.80;64.00
23051;DHT22;11693;51.358;12.410;2022-08-02T10:06:26;34.00;64.50
23051;DHT22;11693;51.358;12.410;2022-08-02T10:08:52;34.10;64.50
23051;DHT22;11693;51.358;12.410;2022-08-02T10:11:26;34.20;63.20
23051;DHT22;11693;51.358;12.410;2022-08-02T10:13:53;34.00;62.40
23051;DHT22;11693;51.358;12.410;2022-08-02T10:16:21;33.70;62.70
23051;DHT22;11693;51.358;12.410;2022-08-02T10:18:51;33.10;64.00
23051;DHT22;11693;51.358;12.410;2022-08-02T10:21:49;33.10;64.90
23051;DHT22;11693;51.358;12.410;2022-08-02T10:24:22;33.20;65.90
23051;DHT22;11693;51.358;12.410;2022-08-02T10:26:49;33.50;63.50
23051;DHT22;11693;51.358;12.410;2022-08-02T10:29:22;33.50;64.90
23051;DHT22;11693;51.358;12.410;2022-08-02T10:31:58;33.90;63.50
23051;DHT22;11693;51.358;12.410;2022-08-02T10:34:35;34.40;63.70
23051;DHT22;11693;51.358;12.410;2022-08-02T10:37:03;34.80;61.60
23051;DHT22;11693;51.358;12.410;2022-08-02T10:39:38;35.10;62.60
23051;DHT22;11693;51.358;12.410;2022-08-02T10:42:04;35.60;63.50
23051;DHT22;11693;51.358;12.410;2022-08-02T10:44:31;36.10;60.70
23051;DHT22;11693;51.358;12.410;2022-08-02T10:49:50;37.00;60.70
23051;DHT22;11693;51.358;12.410;2022-08-02T10:52:17;37.30;58.60
23051;DHT22;11693;51.358;12.410;2022-08-02T10:54:48;37.70;59.40
23051;DHT22;11693;51.358;12.410;2022-08-02T10:57:20;37.80;55.70
23051;DHT22;11693;51.358;12.410;2022-08-02T10:59:47;37.80;56.60
23051;DHT22;11693;51.358;12.410;2022-08-02T11:02:13;37.90;54.30
23051;DHT22;11693;51.358;12.410;2022-08-02T11:07:34;38.40;54.60
23051;DHT22;11693;51.358;12.410;2022-08-02T11:13:09;39.30;55.30
23051;DHT22;11693;51.358;12.410;2022-08-02T11:15:55;39.60;54.00
23051;DHT22;11693;51.358;12.410;2022-08-02T11:21:25;40.00;53.00
23051;DHT22;11693;51.358;12.410;2022-08-02T11:23:53;40.50;51.30
23051;DHT22;11693;51.358;12.410;2022-08-02T11:28:53;41.40;48.30
23051;DHT22;11693;51.358;12.410;2022-08-02T11:31:20;41.70;50.10
23051;DHT22;11693;51.358;12.410;2022-08-02T11:33:48;42.00;47.20
23051;DHT22;11693;51.358;12.410;2022-08-02T11:36:14;42.50;46.40
23051;DHT22;11693;51.358;12.410;2022-08-02T11:38:40;43.00;45.30
23051;DHT22;11693;51.358;12.410;2022-08-02T11:41:06;43.50;47.50
23051;DHT22;11693;51.358;12.410;2022-08-02T11:43:31;44.20;45.10
23051;DHT22;11693;51.358;12.410;2022-08-02T11:46:04;44.50;43.70
23051;DHT22;11693;51.358;12.410;2022-08-02T11:48:37;45.00;43.90
23051;DHT22;11693;51.358;12.410;2022-08-02T11:51:12;45.50;43.20
23051;DHT22;11693;51.358;12.410;2022-08-02T11:53:42;45.50;39.80
23051;DHT22;11693;51.358;12.410;2022-08-02T11:56:09;45.40;41.30
23051;DHT22;11693;51.358;12.410;2022-08-02T11:58:35;45.50;41.80
23051;DHT22;11693;51.358;12.410;2022-08-02T12:01:02;45.60;41.70
23051;DHT22;11693;51.358;12.410;2022-08-02T12:03:35;45.70;41.40
23051;DHT22;11693;51.358;12.410;2022-08-02T12:06:01;45.40;41.00
23051;DHT22;11693;51.358;12.410;2022-08-02T12:08:30;45.50;39.30
23051;DHT22;11693;51.358;12.410;2022-08-02T12:10:55;45.70;40.60
23051;DHT22;11693;51.358;12.410;2022-08-02T12:13:21;45.70;38.30
23051;DHT22;11693;51.358;12.410;2022-08-02T12:15:47;45.50;39.40
23051;DHT22;11693;51.358;12.410;2022-08-02T12:18:16;45.30;39.60
23051;DHT22;11693;51.358;12.410;2022-08-02T12:21:02;45.30;37.60
23051;DHT22;11693;51.358;12.410;2022-08-02T12:23:28;45.80;38.10
23051;DHT22;11693;51.358;12.410;2022-08-02T12:26:07;46.00;37.90
23051;DHT22;11693;51.358;12.410;2022-08-02T12:28:36;46.00;36.90
23051;DHT22;11693;51.358;12.410;2022-08-02T12:31:07;45.90;37.50
23051;DHT22;11693;51.358;12.410;2022-08-02T12:36:21;45.80;36.90
23051;DHT22;11693;51.358;12.410;2022-08-02T12:41:20;46.20;36.70
23051;DHT22;11693;51.358;12.410;2022-08-02T12:43:46;46.40;36.40
23051;DHT22;11693;51.358;12.410;2022-08-02T12:46:16;46.60;35.20
23051;DHT22;11693;51.358;12.410;2022-08-02T12:48:42;47.00;35.80
23051;DHT22;11693;51.358;12.410;2022-08-02T12:51:37;46.90;35.40
23051;DHT22;11693;51.358;12.410;2022-08-02T12:54:18;46.80;35.20
23051;DHT22;11693;51.358;12.410;2022-08-02T12:56:45;46.70;34.40
23051;DHT22;11693;51.358;12.410;2022-08-02T12:59:12;46.10;35.60
23051;DHT22;11693;51.358;12.410;2022-08-02T13:01:38;45.70;36.00
23051;DHT22;11693;51.358;12.410;2022-08-02T13:04:04;45.30;36.50
23051;DHT22;11693;51.358;12.410;2022-08-02T13:06:31;45.50;38.10
23051;DHT22;11693;51.358;12.410;2022-08-02T13:08:57;45.90;35.30
23051;DHT22;11693;51.358;12.410;2022-08-02T13:11:26;46.40;35.20
23051;DHT22;11693;51.358;12.410;2022-08-02T13:13:52;46.80;34.00
23051;DHT22;11693;51.358;12.410;2022-08-02T13:16:17;47.10;34.50
23051;DHT22;11693;51.358;12.410;2022-08-02T13:18:43;47.50;33.30
23051;DHT22;11693;51.358;12.410;2022-08-02T13:21:12;47.70;34.50
23051;DHT22;11693;51.358;12.410;2022-08-02T13:23:37;47.60;32.50
23051;DHT22;11693;51.358;12.410;2022-08-02T13:26:04;47.40;33.40
23051;DHT22;11693;51.358;12.410;2022-08-02T13:28:29;47.30;35.00
23051;DHT22;11693;51.358;12.410;2022-08-02T13:30:55;46.90;33.30
23051;DHT22;11693;51.358;12.410;2022-08-02T13:33:21;46.50;33.60
23051;DHT22;11693;51.358;12.410;2022-08-02T13:35:47;46.30;33.40
23051;DHT22;11693;51.358;12.410;2022-08-02T13:38:13;46.70;34.00
23051;DHT22;11693;51.358;12.410;2022-08-02T13:40:39;46.90;33.10
23051;DHT22;11693;51.358;12.410;2022-08-02T13:43:23;47.10;33.00
23051;DHT22;11693;51.358;12.410;2022-08-02T13:45:48;46.90;34.20
23051;DHT22;11693;51.358;12.410;2022-08-02T13:48:14;46.90;33.60
23051;DHT22;11693;51.358;12.410;2022-08-02T13:50:40;46.80;33.90
23051;DHT22;11693;51.358;12.410;2022-08-02T13:53:05;46.70;34.00
23051;DHT22;11693;51.358;12.410;2022-08-02T13:55:31;46.10;34.20
23051;DHT22;11693;51.358;12.410;2022-08-02T13:57:57;45.30;34.10
23051;DHT22;11693;51.358;12.410;2022-08-02T14:00:23;44.40;34.20
23051;DHT22;11693;51.358;12.410;2022-08-02T14:02:48;44.00;36.00
23051;DHT22;11693;51.358;12.410;2022-08-02T14:05:14;43.50;36.10
23051;DHT22;11693;51.358;12.410;2022-08-02T14:07:39;42.90;36.20
23051;DHT22;11693;51.358;12.410;2022-08-02T14:10:05;42.40;36.20
23051;DHT22;11693;51.358;12.410;2022-08-02T14:12:31;42.30;37.60
23051;DHT22;11693;51.358;12.410;2022-08-02T14:14:57;42.10;37.90
23051;DHT22;11693;51.358;12.410;2022-08-02T14:17:23;41.60;38.20
23051;DHT22;11693;51.358;12.410;2022-08-02T14:19:48;41.10;38.40
23051;DHT22;11693;51.358;12.410;2022-08-02T14:22:15;40.80;37.70
23051;DHT22;11693;51.358;12.410;2022-08-02T14:24:40;40.50;38.40
23051;DHT22;11693;51.358;12.410;2022-08-02T14:27:06;40.50;39.20
23051;DHT22;11693;51.358;12.410;2022-08-02T14:29:32;40.50;37.90
23051;DHT22;11693;51.358;12.410;2022-08-02T14:31:58;40.50;38.30
23051;DHT22;11693;51.358;12.410;2022-08-02T14:34:23;40.20;39.00
23051;DHT22;11693;51.358;12.410;2022-08-02T14:36:49;40.00;39.60
23051;DHT22;11693;51.358;12.410;2022-08-02T14:39:14;39.70;38.60
23051;DHT22;11693;51.358;12.410;2022-08-02T14:41:40;39.30;41.90
23051;DHT22;11693;51.358;12.410;2022-08-02T14:44:06;39.00;41.20
23051;DHT22;11693;51.358;12.410;2022-08-02T14:46:34;38.50;42.20
23051;DHT22;11693;51.358;12.410;2022-08-02T14:49:01;37.70;41.40
23051;DHT22;11693;51.358;12.410;2022-08-02T14:51:29;37.00;43.20
23051;DHT22;11693;51.358;12.410;2022-08-02T14:53:56;36.60;44.50
23051;DHT22;11693;51.358;12.410;2022-08-02T14:56:21;36.30;44.60
23051;DHT22;11693;51.358;12.410;2022-08-02T14:58:47;36.00;44.30
23051;DHT22;11693;51.358;12.410;2022-08-02T15:01:12;35.70;45.00
23051;DHT22;11693;51.358;12.410;2022-08-02T15:03:38;35.30;45.50
23051;DHT22;11693;51.358;12.410;2022-08-02T15:06:04;35.20;45.10
23051;DHT22;11693;51.358;12.410;2022-08-02T15:08:29;34.90;48.30
23051;DHT22;11693;51.358;12.410;2022-08-02T15:10:55;34.90;46.40
23051;DHT22;11693;51.358;12.410;2022-08-02T15:13:21;34.80;47.00
23051;DHT22;11693;51.358;12.410;2022-08-02T15:15:47;34.70;47.00
23051;DHT22;11693;51.358;12.410;2022-08-02T15:18:12;34.80;49.20
23051;DHT22;11693;51.358;12.410;2022-08-02T15:20:38;34.80;48.90
23051;DHT22;11693;51.358;12.410;2022-08-02T15:23:04;34.70;47.50
23051;DHT22;11693;51.358;12.410;2022-08-02T15:25:30;34.50;49.00
23051;DHT22;11693;51.358;12.410;2022-08-02T15:27:55;34.50;47.40
23051;DHT22;11693;51.358;12.410;2022-08-02T15:30:21;34.50;47.50
23051;DHT22;11693;51.358;12.410;2022-08-02T15:32:46;34.30;46.90
23051;DHT22;11693;51.358;12.410;2022-08-02T15:35:13;34.30;46.10
23051;DHT22;11693;51.358;12.410;2022-08-02T15:37:39;34.20;48.50
23051;DHT22;11693;51.358;12.410;2022-08-02T15:40:05;34.00;47.20
23051;DHT22;11693;51.358;12.410;2022-08-02T15:42:31;34.00;48.60
23051;DHT22;11693;51.358;12.410;2022-08-02T15:44:57;34.00;48.30
23051;DHT22;11693;51.358;12.410;2022-08-02T15:47:22;33.90;49.60
23051;DHT22;11693;51.358;12.410;2022-08-02T15:49:48;33.80;47.00
23051;DHT22;11693;51.358;12.410;2022-08-02T15:52:14;33.70;47.00
23051;DHT22;11693;51.358;12.410;2022-08-02T15:54:39;33.60;48.90
23051;DHT22;11693;51.358;12.410;2022-08-02T15:57:05;33.60;48.80
23051;DHT22;11693;51.358;12.410;2022-08-02T15:59:31;33.50;47.90